Latest METARs, TAFs and NOTAMs for LFPB


---------------------------------------------------------------------------
	(OBSERVATIONS)
LFPB 240230Z NIL=
LFPB 240200Z AUTO 00000KT 9999 SCT047 14/12 Q1018 NOSIG=
LFPB 240130Z AUTO 36002KT 9999 FEW048 15/13 Q1018 NOSIG=
LFPB 240100Z AUTO 34001KT CAVOK 15/14 Q1018 NOSIG=
LFPB 240030Z AUTO 00000KT CAVOK 15/13 Q1018 NOSIG=
LFPB 240000Z AUTO 00000KT CAVOK 16/13 Q1018 NOSIG=
---------------------------------------------------------------------------
	(FC)
Sorry, FC For LFPB Not Found
---------------------------------------------------------------------------
	(TERMINAL AREA FORECAST)
LFPB 232300Z 2400/2424 VRB02KT CAVOK
    BECMG 2402/2406 BKN035
    TEMPO 2421/2424 02010KT=
---------------------------------------------------------------------------
	(NOTAMS)


LFPB A1570/17 RNAV PROCEDURE GNSS RWY 27 NOT AVBL. 11 APR 15:29
    2017 UNTIL 31 DEC 23:59 2017. CREATED: 11 APR 15:29 2017

LFPB A3018/17 TWY W15 CLOSED. 03 JUL 13:13 2017 UNTIL 15 SEP
    22:00 2017. CREATED: 03 JUL 13:14 2017

LFPB A3019/17 PARKING AREA H1 CLOSED. 03 JUL 13:14 2017 UNTIL
    15 SEP 22:00 2017. CREATED: 03 JUL 13:22 2017

LFPB A3100/17 TWY W19 CLOSED. 06 JUL 12:00 2017 UNTIL 30 SEP
    23:59 2017. CREATED: 06 JUL 11:33 2017

LFPB A3101/17 APRON I CLOSED. 06 JUL 12:00 2017 UNTIL 30 SEP
    23:59 2017. CREATED: 06 JUL 11:34 2017

LFPB A3108/17 DUE TO OBSTACLE, OPERATING MINIMA MODIFIED : CAT
    A : 650(500) OCH 494 RVR 1800 CAT B : 670(510) OCH 506 RVR
    1900 CAT C : 670(520) OCH 514 RVR 1900 CAT D : 680(530) OCH
    525 RVR 2000 AD2 LFPB IAC RWY07 GNSS REFERS. 17 JUL 05:00
    2017 UNTIL 08 DEC 17:00 2017. CREATED: 06 JUL 15:38 2017

LFPB A3131/17 PARKING AREA JULIET (EAST PART) CLOSED. 10 JUL
    13:00 2017 UNTIL 30 SEP 23:59 2017. CREATED: 10 JUL 09:12
    2017

LFPB P1023/17 CRANE ERECTED RDL 090/0.8NM ARP LFPB PSN 485810N
    0022745E ELEV 263FT DAY MARKED AND NIGHT LIGHTED. 17 JUL
    05:00 2017 UNTIL 08 DEC 17:00 2017. CREATED: 05 JUL 15:34
    2017

LFPB V0902/17 [US DOD PROCEDURAL NOTAM] INSTRUMENT APPROACH PROCEDURE
    LIMITED RNAV RWY 25 LNAV APPROACH NOT AUTHORIZED. 03 AUG
    15:59 2017 UNTIL 14 SEP 00:01 2017. CREATED: 03 AUG 15:59
    2017

---------------------------------------------------------------------------